Time;durP1;ratioP1;P1;durP2;ratioP2;P2;SDS_P1;SDS_P2;PMS_P1;PMS_P2;Temp;Humidity;BMP_temperature;BMP_pressure;BME280_temperature;BME280_humidity;BME280_pressure;Samples;Min_cycle;Max_cycle;Signal;HPM_P1;HPM_P2
2024/01/22 00:00:27;;;;;;;2.60;2.23;;;;;;;2.09;76.65;98801.56;5075462;28;20207;-79
2024/01/22 00:02:53;;;;;;;3.00;2.20;;;;;;;2.00;76.46;98783.56;5075372;28;20232;-77
2024/01/22 00:05:20;;;;;;;4.30;2.93;;;;;;;1.90;75.89;98771.66;5075529;28;20238;-79
2024/01/22 00:07:46;;;;;;;5.30;2.90;;;;;;;1.85;76.29;98776.13;5074950;28;20207;-77
2024/01/22 00:10:14;;;;;;;5.23;3.37;;;;;;;1.86;74.50;98759.59;5075072;28;20578;-77
2024/01/22 00:12:41;;;;;;;3.43;2.67;;;;;;;1.80;74.88;98757.16;5075285;28;20227;-77
2024/01/22 00:15:08;;;;;;;3.70;2.93;;;;;;;1.76;75.18;98752.91;5075298;28;20203;-77
2024/01/22 00:17:35;;;;;;;4.77;2.93;;;;;;;1.82;74.18;98744.06;5074852;28;20207;-77
2024/01/22 00:20:02;;;;;;;5.20;2.70;;;;;;;1.82;73.88;98734.50;5075820;28;20555;-77
2024/01/22 00:22:28;;;;;;;4.20;2.83;;;;;;;1.82;74.31;98736.25;5075233;28;20227;-77
2024/01/22 00:24:55;;;;;;;4.47;2.77;;;;;;;1.80;74.30;98725.88;5074712;28;20228;-77
2024/01/22 00:27:23;;;;;;;6.10;3.10;;;;;;;1.97;72.21;98705.44;5074579;28;20659;-78
2024/01/22 00:29:49;;;;;;;4.37;2.57;;;;;;;1.94;72.13;98689.03;5074973;28;20250;-77
2024/01/22 00:32:16;;;;;;;4.63;2.90;;;;;;;1.90;72.10;98692.63;5075015;28;20232;-77
2024/01/22 00:34:42;;;;;;;5.20;2.73;;;;;;;1.90;72.44;98693.47;5074915;28;20604;-77
2024/01/22 00:37:09;;;;;;;5.73;2.67;;;;;;;1.88;72.12;98684.84;5074394;28;20212;-78
2024/01/22 00:39:35;;;;;;;5.73;3.27;;;;;;;1.89;72.53;98685.69;5074736;28;20220;-78
2024/01/22 00:42:02;;;;;;;3.77;2.87;;;;;;;1.94;71.46;98662.94;5075084;28;20228;-78
2024/01/22 00:44:29;;;;;;;4.57;2.97;;;;;;;1.93;71.61;98677.75;5074825;28;20238;-77
2024/01/22 00:46:56;;;;;;;4.80;3.20;;;;;;;1.99;71.85;98677.59;5074487;28;20215;-77
2024/01/22 00:49:22;;;;;;;3.83;3.17;;;;;;;1.91;71.83;98669.09;5075098;28;20582;-78
2024/01/22 00:51:49;;;;;;;5.67;3.50;;;;;;;1.89;71.82;98676.13;5074577;28;20235;-78
2024/01/22 00:54:15;;;;;;;3.83;3.20;;;;;;;1.82;72.43;98668.50;5074534;28;20633;-80
2024/01/22 00:56:42;;;;;;;4.73;3.40;;;;;;;1.70;73.62;98671.41;5074052;28;20204;-77
2024/01/22 00:59:08;;;;;;;6.57;3.80;;;;;;;1.70;73.43;98654.03;5074992;28;20214;-78
2024/01/22 01:01:36;;;;;;;5.53;3.83;;;;;;;1.72;73.12;98651.41;5074714;28;20223;-78
2024/01/22 01:04:03;;;;;;;5.80;3.27;;;;;;;1.65;73.56;98653.31;5074335;28;20242;-78
2024/01/22 01:06:29;;;;;;;5.77;3.73;;;;;;;1.56;73.78;98650.94;5072981;28;20218;-78
2024/01/22 01:08:56;;;;;;;7.60;3.20;;;;;;;1.52;74.57;98662.31;5074573;28;20234;-77
2024/01/22 01:11:22;;;;;;;3.50;2.73;;;;;;;1.49;75.31;98664.16;5074688;28;20236;-78
2024/01/22 01:13:49;;;;;;;3.20;2.70;;;;;;;1.51;74.58;98660.63;5074260;28;20211;-78
2024/01/22 01:16:15;;;;;;;5.13;2.90;;;;;;;1.47;74.56;98674.59;5073959;28;20211;-78
2024/01/22 01:18:43;;;;;;;7.03;3.20;;;;;;;1.45;75.41;98679.00;5074123;28;20234;-77
2024/01/22 01:21:09;;;;;;;5.57;3.47;;;;;;;1.46;75.19;98674.63;5074028;28;20213;-77
2024/01/22 01:23:36;;;;;;;4.93;3.27;;;;;;;1.46;75.18;98672.91;5075311;28;20207;-79
2024/01/22 01:26:02;;;;;;;4.00;2.70;;;;;;;1.49;74.46;98670.22;5074535;28;20204;-77
2024/01/22 01:28:29;;;;;;;4.97;3.10;;;;;;;1.42;75.82;98673.84;5074887;28;20690;-79
2024/01/22 01:30:55;;;;;;;3.97;3.00;;;;;;;1.42;76.30;98673.84;5075210;28;20219;-78
2024/01/22 01:33:22;;;;;;;3.97;2.83;;;;;;;1.38;76.06;98672.25;5073989;28;20208;-80
2024/01/22 01:35:50;;;;;;;4.07;2.40;;;;;;;1.38;75.33;98667.03;5074264;28;20203;-79
2024/01/22 01:38:16;;;;;;;3.93;2.77;;;;;;;1.29;75.60;98669.84;5074141;28;20223;-79
2024/01/22 01:40:43;;;;;;;4.70;3.10;;;;;;;1.28;76.65;98681.16;5074271;28;20203;-77
2024/01/22 01:43:09;;;;;;;4.80;2.93;;;;;;;1.20;76.45;98672.69;5074819;28;20232;-78
2024/01/22 01:45:36;;;;;;;4.60;2.70;;;;;;;1.15;77.19;98652.84;5073793;28;20227;-78
2024/01/22 01:48:03;;;;;;;4.23;2.63;;;;;;;1.12;78.69;98673.75;5073197;28;20666;-78
2024/01/22 01:50:30;;;;;;;3.80;2.80;;;;;;;1.07;78.78;98681.66;5072362;28;20249;-78
2024/01/22 01:52:57;;;;;;;4.10;2.73;;;;;;;1.03;79.95;98682.63;5073486;28;20329;-78
2024/01/22 01:55:25;;;;;;;3.70;2.90;;;;;;;1.02;80.29;98691.31;5073784;28;20210;-77
2024/01/22 01:57:51;;;;;;;3.47;2.83;;;;;;;1.02;80.62;98688.72;5074999;28;20227;-78
2024/01/22 02:00:19;;;;;;;4.03;2.80;;;;;;;1.00;80.93;98693.09;5073788;28;20211;-78
2024/01/22 02:02:46;;;;;;;5.17;3.33;;;;;;;1.05;81.51;98698.22;5073895;28;20252;-78
2024/01/22 02:05:13;;;;;;;4.60;3.33;;;;;;;1.05;81.27;98691.25;5073958;28;20697;-77
2024/01/22 02:07:40;;;;;;;3.77;3.20;;;;;;;1.10;81.26;98685.94;5075474;28;20266;-81
2024/01/22 02:10:12;;;;;;;5.70;3.63;;;;;;;1.19;81.89;98684.00;5074086;28;20203;-79
2024/01/22 02:12:39;;;;;;;4.43;3.37;;;;;;;1.28;81.55;98691.56;5073439;28;20235;-78
2024/01/22 02:15:06;;;;;;;8.20;3.83;;;;;;;1.38;81.32;98673.97;5073743;28;20213;-79
2024/01/22 02:17:32;;;;;;;5.53;3.40;;;;;;;1.44;80.99;98673.81;5073473;28;20306;-77
2024/01/22 02:19:59;;;;;;;4.23;3.27;;;;;;;1.45;80.83;98672.94;5074250;28;20203;-77
2024/01/22 02:22:25;;;;;;;5.47;3.83;;;;;;;1.50;80.92;98682.34;5073606;28;20230;-77
2024/01/22 02:24:53;;;;;;;4.43;3.27;;;;;;;1.57;80.92;98678.69;5073507;28;20227;-80
2024/01/22 02:27:22;;;;;;;5.77;4.10;;;;;;;1.59;80.38;98666.47;5073304;28;20215;-77
2024/01/22 02:29:48;;;;;;;6.53;3.20;;;;;;;1.63;80.33;98678.53;5073461;28;20212;-80
2024/01/22 02:32:15;;;;;;;5.83;3.70;;;;;;;1.61;80.34;98672.50;5073541;28;20740;-77
2024/01/22 02:34:41;;;;;;;6.83;4.00;;;;;;;1.59;80.42;98676.06;5074106;28;20203;-79
2024/01/22 02:37:08;;;;;;;5.63;3.83;;;;;;;1.54;80.86;98673.56;5072832;28;20207;-79
2024/01/22 02:39:35;;;;;;;7.00;4.20;;;;;;;1.57;80.86;98657.88;5073348;28;20214;-77
2024/01/22 02:42:03;;;;;;;6.17;3.83;;;;;;;1.56;80.32;98660.50;5072817;28;20230;-78
2024/01/22 02:44:30;;;;;;;4.10;3.17;;;;;;;1.49;80.92;98649.41;5072494;28;20237;-77
2024/01/22 02:46:56;;;;;;;4.67;3.40;;;;;;;1.44;81.95;98656.47;5072541;28;20203;-78
2024/01/22 02:49:23;;;;;;;4.27;3.30;;;;;;;1.47;81.25;98645.13;5072852;28;20831;-77
2024/01/22 02:51:49;;;;;;;4.93;2.93;;;;;;;1.47;81.57;98651.16;5071290;28;20726;-78
2024/01/22 02:54:16;;;;;;;4.47;2.93;;;;;;;1.52;81.39;98646.69;5073614;28;20210;-77
2024/01/22 02:56:42;;;;;;;4.90;3.30;;;;;;;1.50;81.17;98643.28;5072751;28;20210;-77
2024/01/22 02:59:10;;;;;;;5.60;3.40;;;;;;;1.41;81.46;98635.69;5072811;28;20230;-78
2024/01/22 03:01:38;;;;;;;7.67;4.40;;;;;;;1.31;81.53;98634.22;5072792;28;20710;-78
2024/01/22 03:04:04;;;;;;;6.17;4.23;;;;;;;1.16;82.45;98639.78;5072556;28;20208;-77
2024/01/22 03:06:31;;;;;;;5.87;4.27;;;;;;;1.12;83.39;98645.94;5072119;28;20230;-77
2024/01/22 03:08:57;;;;;;;8.03;4.57;;;;;;;1.04;84.13;98653.09;5072685;28;20218;-77
2024/01/22 03:11:24;;;;;;;6.30;4.00;;;;;;;1.01;84.98;98645.38;5072246;28;20246;-78
2024/01/22 03:13:51;;;;;;;7.40;4.80;;;;;;;0.99;85.29;98647.13;5071855;28;20636;-77
2024/01/22 03:16:19;;;;;;;6.83;4.60;;;;;;;1.03;85.28;98658.31;5071477;28;20554;-77
2024/01/22 03:18:45;;;;;;;6.63;4.03;;;;;;;1.08;85.46;98641.72;5072286;28;20215;-77
2024/01/22 03:21:12;;;;;;;7.03;4.33;;;;;;;1.14;85.75;98640.72;5071875;28;20608;-77
2024/01/22 03:23:39;;;;;;;7.50;4.23;;;;;;;1.24;86.24;98637.84;5071786;28;20213;-77
2024/01/22 03:26:05;;;;;;;6.40;4.17;;;;;;;1.35;85.46;98625.44;5071057;28;20254;-77
2024/01/22 03:28:32;;;;;;;6.50;4.60;;;;;;;1.44;85.69;98634.75;5071760;28;20211;-78
2024/01/22 03:30:58;;;;;;;6.10;4.67;;;;;;;1.51;85.93;98626.75;5071468;28;20247;-77
2024/01/22 03:33:26;;;;;;;10.30;4.83;;;;;;;1.61;85.76;98617.78;5072187;28;20215;-77
2024/01/22 03:35:53;;;;;;;7.27;4.50;;;;;;;1.69;86.49;98620.19;5071929;28;20215;-78
2024/01/22 03:38:19;;;;;;;8.37;5.27;;;;;;;1.67;86.69;98620.25;5071482;28;20682;-78
2024/01/22 03:40:46;;;;;;;6.40;4.93;;;;;;;1.71;86.14;98614.06;5071738;28;20208;-77
2024/01/22 03:43:12;;;;;;;8.33;5.13;;;;;;;1.71;86.04;98614.06;5071995;28;20263;-78
2024/01/22 03:45:39;;;;;;;7.87;5.40;;;;;;;1.72;86.00;98609.72;5072002;28;20231;-77
2024/01/22 03:48:06;;;;;;;6.30;5.00;;;;;;;1.74;85.26;98611.38;5071805;28;20297;-77
2024/01/22 03:50:34;;;;;;;6.90;5.20;;;;;;;1.77;85.75;98603.47;5071865;28;20215;-78
2024/01/22 03:53:01;;;;;;;9.40;5.20;;;;;;;1.77;85.56;98603.47;5071658;28;20242;-77
2024/01/22 03:55:27;;;;;;;8.13;4.60;;;;;;;1.79;85.54;98614.69;5072145;28;20203;-78
2024/01/22 03:57:54;;;;;;;7.70;5.40;;;;;;;1.78;86.55;98609.56;5071755;28;20205;-78
2024/01/22 04:00:20;;;;;;;7.07;4.73;;;;;;;1.82;86.48;98606.81;5071657;28;20205;-78
2024/01/22 04:02:48;;;;;;;6.30;4.53;;;;;;;1.83;85.84;98600.69;5072048;28;20227;-78
2024/01/22 04:05:14;;;;;;;6.97;4.70;;;;;;;1.94;84.25;98590.84;5071747;28;20263;-77
2024/01/22 04:07:42;;;;;;;7.37;4.77;;;;;;;2.00;84.15;98589.81;5071101;28;20212;-77
2024/01/22 04:10:09;;;;;;;6.50;4.50;;;;;;;1.99;84.24;98586.34;5072027;28;20208;-78
2024/01/22 04:12:36;;;;;;;5.87;4.00;;;;;;;2.01;83.99;98581.06;5071449;28;20230;-77
2024/01/22 04:15:03;;;;;;;7.53;3.90;;;;;;;2.05;84.32;98594.00;5071896;28;20210;-77
2024/01/22 04:17:29;;;;;;;9.13;3.70;;;;;;;2.11;83.93;98588.63;5071016;28;20211;-77
2024/01/22 04:19:56;;;;;;;5.43;3.37;;;;;;;2.16;84.89;98580.66;5071777;28;20207;-79
2024/01/22 04:22:22;;;;;;;6.53;3.57;;;;;;;2.16;84.34;98562.41;5071396;28;20220;-79
2024/01/22 04:24:49;;;;;;;6.70;3.50;;;;;;;2.18;84.51;98564.06;5071528;28;20232;-78
2024/01/22 04:27:16;;;;;;;7.07;3.70;;;;;;;2.21;84.60;98558.75;5074679;28;20208;-78
2024/01/22 04:29:42;;;;;;;5.47;3.60;;;;;;;2.23;84.52;98550.91;5075002;28;20225;-78
2024/01/22 04:32:09;;;;;;;6.00;3.73;;;;;;;2.31;84.08;98546.28;5075468;28;20262;-78
2024/01/22 04:34:37;;;;;;;5.30;3.60;;;;;;;2.33;83.83;98542.75;5074687;28;20671;-78
2024/01/22 04:37:05;;;;;;;5.10;3.50;;;;;;;2.33;84.02;98547.97;5074477;28;20299;-78
2024/01/22 04:39:31;;;;;;;8.80;3.90;;;;;;;2.34;84.11;98544.44;5075122;28;20619;-77
2024/01/22 04:41:59;;;;;;;4.30;3.50;;;;;;;2.34;84.55;98549.66;5074910;28;20572;-77
2024/01/22 04:44:28;;;;;;;4.73;3.27;;;;;;;2.34;84.65;98549.66;5074954;28;20633;-78
2024/01/22 04:46:55;;;;;;;4.93;3.47;;;;;;;2.35;84.96;98548.78;5074593;28;20232;-77
2024/01/22 04:49:21;;;;;;;5.90;4.07;;;;;;;2.29;85.12;98546.38;5075195;28;20235;-77
2024/01/22 04:51:48;;;;;;;7.10;4.00;;;;;;;2.27;85.86;98539.47;5074713;28;20349;-78
2024/01/22 04:54:15;;;;;;;6.03;4.03;;;;;;;2.26;86.09;98550.81;5074602;28;20246;-78
2024/01/22 04:56:42;;;;;;;6.90;4.03;;;;;;;2.24;86.81;98547.38;5074503;28;20208;-77
2024/01/22 04:59:10;;;;;;;6.10;3.67;;;;;;;2.26;87.54;98541.22;5074952;28;20199;-77
2024/01/22 05:01:37;;;;;;;6.23;3.60;;;;;;;2.25;87.80;98552.56;5074570;28;20231;-78
2024/01/22 05:04:03;;;;;;;6.13;4.10;;;;;;;2.26;88.10;98548.22;5074480;28;20214;-80
2024/01/22 05:06:30;;;;;;;5.70;3.67;;;;;;;2.21;89.03;98550.94;5073964;28;20240;-77
2024/01/22 05:09:04;;;;;;;6.03;4.13;;;;;;;2.21;89.36;98553.53;5075123;28;20203;-79
2024/01/22 05:11:31;;;;;;;5.33;3.83;;;;;;;2.20;89.51;98557.06;5075295;28;20224;-79
2024/01/22 05:13:58;;;;;;;6.47;4.03;;;;;;;2.31;90.06;98549.78;5074597;28;20238;-79
2024/01/22 05:16:26;;;;;;;7.17;3.90;;;;;;;2.30;89.61;98545.47;5073974;28;20591;-77
2024/01/22 05:18:53;;;;;;;6.30;4.07;;;;;;;2.29;89.99;98551.56;5074198;28;20216;-78
2024/01/22 05:21:21;;;;;;;5.77;4.20;;;;;;;2.35;90.21;98546.19;5074285;28;20706;-80
2024/01/22 05:23:48;;;;;;;6.43;3.80;;;;;;;2.35;90.35;98543.56;5075522;28;20215;-79
2024/01/22 05:26:14;;;;;;;6.10;3.80;;;;;;;2.39;90.43;98545.16;5074717;28;20223;-79
2024/01/22 05:28:41;;;;;;;4.50;3.47;;;;;;;2.43;90.74;98536.34;5076453;28;20209;-79
2024/01/22 05:31:07;;;;;;;7.57;4.17;;;;;;;2.45;90.64;98542.38;5073805;28;20705;-77
2024/01/22 05:33:35;;;;;;;5.47;3.50;;;;;;;2.53;90.40;98534.31;5074421;28;20265;-78
2024/01/22 05:36:02;;;;;;;4.53;3.30;;;;;;;2.54;89.96;98518.63;5074501;28;20204;-80
2024/01/22 05:38:28;;;;;;;5.30;3.50;;;;;;;2.60;89.86;98525.41;5074281;28;20628;-79
2024/01/22 05:40:55;;;;;;;5.40;3.73;;;;;;;2.62;89.98;98519.22;5074448;28;20208;-79
2024/01/22 05:43:22;;;;;;;5.13;3.13;;;;;;;2.63;89.75;98505.28;5074147;28;20207;-77
2024/01/22 05:45:48;;;;;;;4.37;3.27;;;;;;;2.67;90.30;98496.47;5073755;28;20228;-77
2024/01/22 05:48:15;;;;;;;4.43;3.60;;;;;;;2.67;90.31;98490.38;5073904;28;20211;-80
2024/01/22 05:50:42;;;;;;;4.83;3.60;;;;;;;2.70;89.87;98485.91;5074617;28;20209;-79
2024/01/22 05:53:09;;;;;;;6.40;3.80;;;;;;;2.66;90.14;98484.31;5073179;28;20243;-78
2024/01/22 05:55:36;;;;;;;6.23;3.47;;;;;;;2.71;90.30;98485.03;5074997;28;20204;-77
2024/01/22 05:58:02;;;;;;;6.73;3.47;;;;;;;2.70;90.52;98472.03;5075012;28;20216;-77
2024/01/22 06:00:29;;;;;;;5.43;3.57;;;;;;;2.70;90.32;98469.41;5075103;28;20212;-79
2024/01/22 06:02:55;;;;;;;4.83;3.17;;;;;;;2.71;90.45;98469.38;5073376;28;20265;-79
2024/01/22 06:05:22;;;;;;;4.27;3.40;;;;;;;2.75;90.41;98475.34;5074242;28;20506;-79
2024/01/22 06:07:50;;;;;;;5.33;3.30;;;;;;;2.75;90.47;98470.94;5073375;28;20217;-79
2024/01/22 06:10:16;;;;;;;5.10;3.50;;;;;;;2.76;90.34;98459.59;5076387;28;20209;-79
2024/01/22 06:12:43;;;;;;;6.00;3.43;;;;;;;2.84;90.36;98467.19;5076972;28;20232;-79
2024/01/22 06:15:10;;;;;;;5.03;3.70;;;;;;;2.85;89.91;98461.94;5074354;28;20209;-79
2024/01/22 06:17:36;;;;;;;6.93;4.07;;;;;;;2.84;90.08;98452.41;5072160;28;20672;-77
2024/01/22 06:20:04;;;;;;;6.80;3.87;;;;;;;2.82;90.03;98448.97;5074222;28;20210;-80
2024/01/22 06:22:30;;;;;;;5.77;3.90;;;;;;;2.82;90.14;98442.91;5073817;28;20240;-77
2024/01/22 06:24:58;;;;;;;8.33;4.30;;;;;;;2.83;90.50;98449.81;5073804;28;20232;-77
2024/01/22 06:27:25;;;;;;;4.77;3.57;;;;;;;2.85;90.87;98448.00;5073439;28;20314;-77
2024/01/22 06:29:53;;;;;;;6.73;4.20;;;;;;;2.95;90.02;98445.03;5073906;28;20218;-80
2024/01/22 06:32:19;;;;;;;6.07;3.90;;;;;;;2.91;90.70;98448.66;5075038;28;20224;-78
2024/01/22 06:34:46;;;;;;;5.50;3.93;;;;;;;2.93;91.34;98443.41;5074340;28;20216;-77
2024/01/22 06:37:13;;;;;;;5.40;3.77;;;;;;;2.89;91.51;98450.47;5074042;28;20274;-77
2024/01/22 06:39:39;;;;;;;5.37;3.43;;;;;;;2.87;91.75;98451.44;5074652;28;20205;-78
2024/01/22 06:42:08;;;;;;;5.37;3.60;;;;;;;2.86;92.98;98455.78;5074533;28;20227;-77
2024/01/22 06:44:34;;;;;;;4.67;2.93;;;;;;;2.91;93.19;98453.88;5074451;28;20209;-78
2024/01/22 06:47:01;;;;;;;4.50;3.37;;;;;;;2.98;93.43;98450.16;5073729;28;20232;-78
2024/01/22 06:49:27;;;;;;;6.60;3.23;;;;;;;3.04;92.91;98439.50;5074493;28;20217;-78
2024/01/22 06:51:54;;;;;;;4.43;3.27;;;;;;;3.18;92.19;98432.03;5074531;28;20346;-78
2024/01/22 06:54:20;;;;;;;4.83;2.90;;;;;;;3.22;91.35;98432.78;5074452;28;20214;-78
2024/01/22 06:56:47;;;;;;;5.13;2.90;;;;;;;3.32;90.38;98423.72;5073787;28;20209;-78
2024/01/22 06:59:15;;;;;;;3.47;2.53;;;;;;;3.41;89.22;98415.53;5074425;28;20210;-78
2024/01/22 07:01:41;;;;;;;3.50;2.43;;;;;;;3.50;88.50;98408.25;5073808;28;20237;-78
2024/01/22 07:04:08;;;;;;;3.10;2.23;;;;;;;3.63;86.92;98391.19;5073815;28;20216;-78
2024/01/22 07:06:35;;;;;;;4.33;2.53;;;;;;;3.73;86.15;98384.69;5074260;28;20235;-78
2024/01/22 07:09:02;;;;;;;2.97;2.10;;;;;;;3.86;84.67;98393.75;5075134;28;20560;-78
2024/01/22 07:11:28;;;;;;;2.87;2.37;;;;;;;3.92;84.58;98390.91;5075034;28;20225;-78
2024/01/22 07:13:55;;;;;;;2.93;1.90;;;;;;;3.99;84.01;98395.03;5073414;28;20214;-78
2024/01/22 07:16:22;;;;;;;2.70;1.97;;;;;;;4.04;83.18;98405.28;5075513;28;20211;-80
2024/01/22 07:18:49;;;;;;;2.80;2.17;;;;;;;4.13;83.57;98412.75;5084279;28;20209;-78
2024/01/22 07:21:15;;;;;;;4.13;2.43;;;;;;;4.15;82.26;98413.56;5083673;28;20229;-78
2024/01/22 07:23:42;;;;;;;3.53;2.03;;;;;;;4.24;82.33;98397.50;5082362;28;20216;-77
2024/01/22 07:26:08;;;;;;;3.03;1.83;;;;;;;4.28;82.30;98394.69;5081299;28;20240;-77
2024/01/22 07:28:35;;;;;;;2.80;2.17;;;;;;;4.28;81.83;98384.22;5078100;28;20228;-77
2024/01/22 07:31:01;;;;;;;2.60;2.00;;;;;;;4.37;80.81;98362.94;5071630;28;20824;-77
2024/01/22 07:33:30;;;;;;;3.13;2.07;;;;;;;4.40;80.85;98362.81;5071974;28;20207;-77
2024/01/22 07:35:56;;;;;;;2.83;1.90;;;;;;;4.45;79.80;98365.25;5071474;28;20239;-77
2024/01/22 07:38:23;;;;;;;2.73;2.03;;;;;;;4.48;79.29;98355.50;5071319;28;20244;-77
2024/01/22 07:40:50;;;;;;;2.97;2.00;;;;;;;4.62;78.58;98337.44;5072030;28;20217;-77
2024/01/22 07:43:16;;;;;;;2.40;1.80;;;;;;;4.72;76.68;98323.06;5071599;28;20230;-77
2024/01/22 07:45:42;;;;;;;2.23;1.70;;;;;;;4.78;77.61;98319.31;5071349;28;20217;-76
2024/01/22 07:48:09;;;;;;;2.97;1.87;;;;;;;4.79;77.28;98319.25;5071514;28;20678;-77
2024/01/22 07:50:37;;;;;;;3.27;2.07;;;;;;;4.89;76.30;98312.69;5072869;28;20206;-78
2024/01/22 07:53:04;;;;;;;3.00;2.10;;;;;;;5.00;74.77;98297.34;5071549;28;20345;-77
2024/01/22 07:55:32;;;;;;;2.93;2.07;;;;;;;5.06;73.95;98280.53;5071300;28;20209;-77
2024/01/22 07:57:59;;;;;;;2.60;2.00;;;;;;;5.05;74.08;98269.19;5071340;28;20217;-77
2024/01/22 08:00:26;;;;;;;3.47;2.30;;;;;;;5.05;73.57;98258.72;5072676;28;20213;-78
2024/01/22 08:02:52;;;;;;;2.17;1.73;;;;;;;4.99;73.18;98266.84;5071760;28;20735;-77
2024/01/22 08:05:21;;;;;;;2.50;2.00;;;;;;;5.02;74.61;98276.34;5071243;28;20648;-77
2024/01/22 08:07:49;;;;;;;3.67;1.97;;;;;;;5.21;72.90;98254.50;5070850;28;20231;-77
2024/01/22 08:10:16;;;;;;;3.80;1.83;;;;;;;5.32;73.15;98251.38;5071016;28;20430;-77
2024/01/22 08:12:42;;;;;;;1.83;1.60;;;;;;;5.39;71.70;98240.53;5067797;28;20251;-77
2024/01/22 08:15:14;;;;;;;2.83;1.67;;;;;;;5.51;72.43;98254.81;5071418;28;20214;-77
2024/01/22 08:17:42;;;;;;;2.00;1.40;;;;;;;5.58;72.18;98249.22;5075137;28;20226;-77
2024/01/22 08:20:09;;;;;;;2.07;1.47;;;;;;;5.61;72.15;98251.69;5075068;28;20669;-77
2024/01/22 08:22:35;;;;;;;2.57;1.60;;;;;;;5.68;72.16;98254.88;5075584;28;20253;-77
2024/01/22 08:25:04;;;;;;;2.00;1.47;;;;;;;5.76;72.15;98255.34;5075154;28;20204;-77
2024/01/22 08:27:31;;;;;;;3.00;1.77;;;;;;;5.82;71.65;98258.56;5075318;28;20224;-77
2024/01/22 08:29:57;;;;;;;2.70;1.50;;;;;;;5.93;71.62;98250.19;5075965;28;20593;-77
2024/01/22 08:32:23;;;;;;;2.33;1.43;;;;;;;5.98;71.78;98253.44;5075966;28;20238;-78
2024/01/22 08:34:50;;;;;;;2.10;1.40;;;;;;;6.11;71.88;98260.59;5075603;28;20298;-77
2024/01/22 08:37:16;;;;;;;2.13;1.53;;;;;;;6.12;72.01;98258.84;5075320;28;20209;-78
2024/01/22 08:39:43;;;;;;;1.83;1.57;;;;;;;6.19;72.17;98252.34;5075506;28;20206;-78
2024/01/22 08:42:11;;;;;;;3.83;1.70;;;;;;;6.22;71.30;98253.06;5075364;28;20237;-78
2024/01/22 08:44:38;;;;;;;3.07;1.60;;;;;;;6.29;72.05;98250.97;5075025;28;20214;-78
2024/01/22 08:47:04;;;;;;;2.93;1.70;;;;;;;6.39;72.10;98255.69;5074779;28;20284;-77
2024/01/22 08:49:31;;;;;;;1.60;1.50;;;;;;;6.42;71.52;98255.50;5073873;28;20211;-79
2024/01/22 08:52:01;;;;;;;3.47;1.70;;;;;;;6.39;73.01;98260.94;5075200;28;20333;-77
2024/01/22 08:54:28;;;;;;;3.40;1.70;;;;;;;6.51;73.04;98254.19;5075095;28;20204;-77
2024/01/22 08:56:55;;;;;;;2.27;1.60;;;;;;;6.53;73.26;98249.75;5074859;28;20207;-77
2024/01/22 08:59:23;;;;;;;1.90;1.30;;;;;;;6.59;72.96;98258.13;5077716;28;20776;-78
2024/01/22 09:01:50;;;;;;;2.00;1.80;;;;;;;6.62;73.40;98258.00;5078670;28;20295;-78
2024/01/22 09:04:16;;;;;;;3.73;1.60;;;;;;;6.59;74.40;98262.56;5078459;28;20225;-78
2024/01/22 09:06:43;;;;;;;3.03;1.90;;;;;;;6.53;73.93;98247.94;5078167;28;20259;-78
2024/01/22 09:09:09;;;;;;;2.37;1.57;;;;;;;6.56;75.50;98266.19;5077215;28;20252;-81
2024/01/22 09:11:36;;;;;;;3.27;1.60;;;;;;;6.55;75.57;98264.50;5079722;28;20230;-79
2024/01/22 09:14:03;;;;;;;3.07;1.90;;;;;;;6.52;76.92;98280.38;5077354;28;20305;-79
2024/01/22 09:16:31;;;;;;;2.20;1.60;;;;;;;6.54;77.73;98278.53;5075901;28;20199;-79
2024/01/22 09:18:57;;;;;;;3.37;1.70;;;;;;;6.60;80.05;98280.84;5075210;28;20218;-77
2024/01/22 09:21:24;;;;;;;1.90;1.30;;;;;;;6.69;82.29;98301.38;5074323;28;20281;-77
2024/01/22 09:23:50;;;;;;;1.40;1.30;;;;;;;6.85;85.09;98312.78;5074184;28;20204;-77
2024/01/22 09:26:17;;;;;;;1.57;0.83;;;;;;;7.15;90.63;98332.22;5075135;28;20207;-78
2024/01/22 09:28:43;;;;;;;0.90;0.60;;;;;;;7.77;95.27;98332.38;5077985;28;20222;-80
2024/01/22 09:31:10;;;;;;;0.73;0.53;;;;;;;8.25;95.41;98308.56;5078507;28;20243;-80
2024/01/22 09:33:38;;;;;;;0.83;0.53;;;;;;;8.58;93.49;98296.09;5077467;28;20207;-78
2024/01/22 09:36:05;;;;;;;0.70;0.60;;;;;;;8.72;92.22;98280.31;5081865;28;20210;-80
2024/01/22 09:38:31;;;;;;;1.70;0.70;;;;;;;8.99;91.12;98286.59;5084275;28;20212;-78
2024/01/22 09:40:58;;;;;;;1.57;0.50;;;;;;;9.01;89.84;98280.25;5082744;28;20211;-78
2024/01/22 09:43:25;;;;;;;0.90;0.87;;;;;;;9.04;90.07;98274.81;5083654;28;20599;-79
2024/01/22 09:45:52;;;;;;;0.50;0.50;;;;;;;9.16;89.52;98273.19;5080550;28;20212;-79
2024/01/22 09:48:18;;;;;;;1.27;0.63;;;;;;;9.16;89.05;98266.16;5077990;28;20752;-78
2024/01/22 09:50:49;;;;;;;0.50;0.50;;;;;;;9.28;89.41;98270.69;5076755;28;20226;-78
2024/01/22 09:53:18;;;;;;;0.60;0.60;;;;;;;9.44;89.18;98267.94;5076307;28;20225;-77
2024/01/22 09:55:44;;;;;;;0.60;0.53;;;;;;;9.52;89.27;98265.66;5073190;28;20212;-77
2024/01/22 09:58:19;;;;;;;1.30;0.60;;;;;;;9.69;88.59;98241.69;5072959;28;20211;-77
2024/01/22 10:00:46;;;;;;;0.50;0.50;;;;;;;9.69;88.36;98252.25;5073192;28;20207;-77
2024/01/22 10:03:14;;;;;;;1.07;0.70;;;;;;;9.73;88.51;98248.47;5072689;28;20234;-77
2024/01/22 10:05:40;;;;;;;0.67;0.50;;;;;;;9.70;88.71;98264.50;5072601;28;20241;-77
2024/01/22 10:08:09;;;;;;;1.03;0.50;;;;;;;9.88;88.98;98265.97;5072000;28;20232;-77
2024/01/22 10:10:37;;;;;;;0.57;0.50;;;;;;;9.99;88.09;98258.19;5072808;28;20300;-77
2024/01/22 10:13:05;;;;;;;0.77;0.60;;;;;;;9.95;88.40;98248.78;5072695;28;20237;-76
2024/01/22 10:15:32;;;;;;;0.70;0.40;;;;;;;9.91;89.39;98253.41;5072577;28;20217;-77
2024/01/22 10:18:13;;;;;;;0.37;0.37;;;;;;;9.91;89.54;98248.13;5072018;28;20266;-76
2024/01/22 10:20:40;;;;;;;0.60;0.37;;;;;;;9.89;91.15;98243.88;5072237;28;20204;-76
2024/01/22 10:23:09;;;;;;;0.70;0.47;;;;;;;9.96;91.71;98246.03;5072458;28;20224;-77
2024/01/22 10:25:36;;;;;;;0.70;0.57;;;;;;;9.99;91.82;98239.72;5072562;28;20208;-76
2024/01/22 10:28:16;;;;;;;0.83;0.47;;;;;;;10.00;91.81;98236.97;5072757;28;20231;-77
2024/01/22 10:30:44;;;;;;;0.93;0.70;;;;;;;10.02;91.95;98229.78;5072154;28;20224;-77
2024/01/22 10:33:14;;;;;;;1.60;0.50;;;;;;;10.02;92.55;98239.50;5072334;28;20244;-77
2024/01/22 10:35:41;;;;;;;0.93;0.63;;;;;;;10.06;92.92;98227.84;5072392;28;20210;-77
2024/01/22 10:38:11;;;;;;;1.30;0.40;;;;;;;10.18;93.35;98219.09;5071846;28;20215;-77
2024/01/22 10:40:38;;;;;;;0.60;0.50;;;;;;;10.23;93.52;98211.72;5071563;28;20214;-77
2024/01/22 10:43:30;;;;;;;0.60;0.40;;;;;;;10.25;93.67;98204.53;5072241;28;20240;-77
2024/01/22 10:45:58;;;;;;;1.47;0.50;;;;;;;10.28;94.42;98209.63;5057446;28;20216;-76
2024/01/22 10:48:27;;;;;;;1.03;0.50;;;;;;;10.29;95.02;98208.69;5071625;28;20231;-77
2024/01/22 10:50:55;;;;;;;1.23;0.40;;;;;;;10.33;95.51;98203.06;5072193;28;20207;-76
2024/01/22 10:53:23;;;;;;;0.50;0.40;;;;;;;10.39;95.56;98201.84;5072017;28;20210;-77
2024/01/22 10:55:59;;;;;;;0.40;0.40;;;;;;;10.46;95.58;98197.84;5071924;28;20217;-78
2024/01/22 10:58:27;;;;;;;0.40;0.33;;;;;;;10.60;95.07;98195.94;5071794;28;20214;-77
2024/01/22 11:00:59;;;;;;;0.40;0.40;;;;;;;10.73;94.04;98182.72;5071984;28;20277;-77
2024/01/22 11:03:28;;;;;;;1.30;0.40;;;;;;;10.78;93.46;98180.63;5072130;28;20221;-77
2024/01/22 11:05:57;;;;;;;0.57;0.30;;;;;;;10.90;92.97;98179.75;5071543;28;20211;-77
2024/01/22 11:08:29;;;;;;;1.33;0.50;;;;;;;10.97;93.01;98179.22;5071004;28;20223;-77
2024/01/22 11:10:56;;;;;;;0.70;0.50;;;;;;;11.11;93.91;98180.88;5071456;28;20225;-77
2024/01/22 11:13:23;;;;;;;0.40;0.40;;;;;;;11.13;94.65;98158.66;5071924;28;20631;-78
2024/01/22 11:15:49;;;;;;;0.30;0.30;;;;;;;11.11;95.15;98187.03;5071932;28;20208;-77
2024/01/22 11:18:16;;;;;;;0.30;0.30;;;;;;;11.15;93.66;98161.22;5071409;28;20219;-77
2024/01/22 11:20:43;;;;;;;0.90;0.50;;;;;;;11.20;93.41;98148.50;5071902;28;20590;-77
2024/01/22 11:23:09;;;;;;;1.20;0.40;;;;;;;11.32;93.83;98159.03;5071813;28;20227;-77
2024/01/22 11:25:37;;;;;;;0.60;0.50;;;;;;;11.42;93.74;98146.00;5071240;28;20247;-77
2024/01/22 11:28:05;;;;;;;0.40;0.40;;;;;;;11.43;93.95;98150.34;5071046;28;20605;-77
2024/01/22 11:30:38;;;;;;;0.37;0.37;;;;;;;11.43;93.46;98140.59;5071577;28;20596;-77
2024/01/22 11:33:29;;;;;;;0.60;0.30;;;;;;;11.43;92.00;98145.06;5071496;28;20239;-77
2024/01/22 11:35:56;;;;;;;0.40;0.40;;;;;;;11.35;92.96;98142.09;5071588;28;20216;-78
2024/01/22 11:38:49;;;;;;;0.87;0.50;;;;;;;11.24;92.80;98147.31;5071824;28;20206;-78
2024/01/22 11:41:28;;;;;;;1.20;0.47;;;;;;;11.24;93.08;98144.66;5072966;28;20716;-78